Flight Track Log - Related Links

Times and Time Zones

All times are in EDT time to prevent confusion due to time zone crossing. See the CTL13 flight status page for this flight to view local times or setup timezone preferences in your user account.

Time Position Orientation Groundspeed Altitude Reporting Facility
EDT Latitude Longitude Course Direction KTS MPH feet Rate Location/Type
Thu 08:13:49 PM 39.8833 -86.2833 323° Northwest 144 166 1,800  Level Indianapolis TRACON
Thu 08:14:19 PM 39.9000 -86.3000 323° Northwest 167 192 2,100 518 Climbing Indianapolis TRACON
Thu 08:16:08 PM 39.9850 -86.3403 340° North 172 198 3,000 491 Climbing Indianapolis Center
Thu 08:17:10 PM 40.0300 -86.3656 337° Northwest 175 201 3,500 390 Climbing Indianapolis Center
Thu 08:18:11 PM 40.0761 -86.3936 335° Northwest 179 206 3,800 295 Climbing Indianapolis Center
Thu 08:19:12 PM 40.1175 -86.4289 327° Northwest 180 207 4,100 98 Climbing Indianapolis Center
Thu 08:20:14 PM 40.1606 -86.4664 326° Northwest 182 209 4,000  Descending Indianapolis Center
Thu 08:21:17 PM 40.2125 -86.5181 323° Northwest 189 217 4,100 45 Climbing Chicago Center
Thu 08:22:27 PM 40.2619 -86.5639 325° Northwest 196 226 4,100  Level Chicago Center
Thu 08:23:21 PM 40.3036 -86.5914 333° Northwest 192 221 4,100 -52 Level Chicago Center
Thu 08:24:23 PM 40.3508 -86.6256 331° Northwest 194 223 4,000  Descending Chicago Center
Thu 08:25:25 PM 40.3958 -86.6597 330° Northwest 191 220 4,100  Climbing Chicago Center
Thu 08:26:27 PM 40.4406 -86.6950 329° Northwest 189 217 4,000 -48 Descending Chicago Center
Thu 08:27:29 PM 40.4928 -86.7364 329° Northwest 186 214 4,000  Level Chicago Center
Thu 08:28:31 PM 40.5381 -86.7750 327° Northwest 191 220 4,000 48 Level Chicago Center
Thu 08:29:34 PM 40.5850 -86.8075 332° Northwest 190 219 4,100  Climbing Chicago Center
Thu 08:30:36 PM 40.6292 -86.8433 328° Northwest 189 217 4,000 -48 Descending Chicago Center
Thu 08:31:38 PM 40.6733 -86.8806 327° Northwest 189 217 4,000  Level Chicago Center
Thu 08:32:40 PM 40.7253 -86.9242 328° Northwest 189 217 4,000 48 Level Chicago Center
Thu 08:33:42 PM 40.7692 -86.9619 327° Northwest 190 219 4,100  Climbing Chicago Center
Thu 08:34:44 PM 40.8094 -87.0036 322° Northwest 186 214 4,000  Descending Chicago Center
Thu 08:35:46 PM 40.8489 -87.0436 323° Northwest 181 208 4,100 48 Climbing Chicago Center
Thu 08:36:48 PM 40.8881 -87.0822 323° Northwest 177 204 4,100  Level Chicago Center
Thu 08:37:50 PM 40.9367 -87.1258 326° Northwest 177 204 4,100 -48 Level Chicago Center
Thu 08:38:52 PM 40.9781 -87.1658 324° Northwest 180 207 4,000 -97 Descending Chicago Center
Thu 08:39:54 PM 41.0181 -87.2061 323° Northwest 183 211 3,900 -48 Descending Chicago Center
Thu 08:40:57 PM 41.0653 -87.2353 335° Northwest 187 215 3,900  Level Chicago Center
Thu 08:41:59 PM 41.1106 -87.2681 331° Northwest 188 216 3,900  Level Chicago Center
Thu 08:43:01 PM 41.1622 -87.3111 328° Northwest 186 214 3,900 48 Level Chicago Center
Thu 08:44:03 PM 41.2053 -87.3481 327° Northwest 186 214 4,000 48 Climbing Chicago Center
Thu 08:45:05 PM 41.2494 -87.3808 331° Northwest 184 212 4,000 -48 Level Chicago Center
Thu 08:46:07 PM 41.2931 -87.4150 330° Northwest 184 212 3,900 -48 Descending Chicago Center
Thu 08:47:09 PM 41.3367 -87.4472 331° Northwest 182 209 3,900 -97 Level Chicago Center
Thu 08:48:11 PM 41.3989 -87.4525 356° North 185 213 3,700 -435 Descending Chicago Center
Thu 08:49:13 PM 41.4550 -87.4589 355° North 194 223 3,000 -339 Descending Chicago Center
Thu 08:50:15 PM 41.4811 -87.5100 304° West 188 216 3,000  Level Chicago Center
Thu 08:51:17 PM 41.4958 -87.5725 287° West 181 208 3,000 -48 Level Chicago Center
Thu 08:52:20 PM 41.5167 -87.6458 291° West 178 205 2,900 -48 Descending Chicago Center
Thu 08:53:22 PM 41.5406 -87.7042 299° West 179 206 2,900  Level Chicago Center
Thu 08:54:24 PM 41.5622 -87.7647 296° West 181 208 2,900  Level Chicago Center
Thu 08:55:26 PM 41.5833 -87.8242 295° West 180 207 2,900  Level Chicago Center
Thu 08:56:28 PM 41.6211 -87.8700 318° Northwest 189 217 2,900  Level Chicago Center
Thu 08:57:30 PM 41.6756 -87.8819 351° North 192 221 2,900  Level Chicago Center
Thu 08:58:32 PM 41.7183 -87.8467 32° Northeast 187 215 2,900 -581 Level Chicago Center
Thu 08:59:34 PM 41.7494 -87.8067 44° Northeast 167 192 1,700 -1,041 Descending Chicago Center
Thu 09:00:33 PM 41.7667 -87.7667 60° Northeast 121 139 800 -915 Descending Chicago TRACON
Thu 09:02:00 PM 41.7833 -87.7500 334° Northwest  Level FlightAware Approximate

Login

Don't have an account? Register now (free) for customized features, flight alerts, and more!